3 Jours de Pâques en Bourgogne - Etape 1 Clémencey (21) - I

Date : 26/03/2016
Distance : 4,100 km

Place Nom Licence Catégorie Club Temps min/km CN à J-60 Points Différence Nouveau CN
1 HABERKORN Guilhem 11395 H16 2105BO 0:24:05 5'52 6756 6657 -99 6749
2 ELIAS Guilhem 17763 H16 1307PZ 0:26:56 6'34 7510 5952 -1558 7577
3 GENNARO Mathis 22689 H16 3810RA 0:28:56 7'03 5830 5541 -289 5721
4 ANDRIEUX Quentin 18936 H16 7305RA 0:29:22 7'09 5093 5459 +366 5139
5 GUINOT Thibaut 15019 H16 2108BO 0:30:56 7'32 5364 5183 -181 5504
6 VUITTON Julien 18843 H16 6911RA 0:30:56 7'32 4713 5183 +470 5011
7 PIGEON Thomas 20148 H16 1408NM 0:32:27 7'54 4604 4940 +336 4750
8 MOULET Quentin 29849 H16 2517FC 0:32:39 7'57 5434 4910 -524 5751
9 WYMER Kylian 16649 H16 2508FC 0:33:02 8'03 5382 4853 -529 5480
10 PANNIER Axel 19099 H16 7807IF 0:34:22 8'22 4705 4665 -40 4859
11 CHEVRIER Thomas 26466 H16 5402LO 0:34:57 8'31 4126 4587 +461 4514
12 AMERIJCKX Cédric 24274 H16 5907NO 0:37:03 9'02 3944 4327 +383 4161
13 DERIAZ Roméo 15575 H16 2105BO 0:38:07 9'17 4584 4206 -378 4584
14 LAVALLEE Sylvan 26029 H16 6008PI 0:38:10 9'18 4319 4200 -119 4489
15 VOLLET Lenny 28550 H16 7404RA 0:43:16 10'33 3337 3705 +368 3474
16 FEIGNIER Eric 20662 H16 9105IF 0:43:22 10'34 3438 3697 +259 3657
17 TALLANDIER Virgile 22077 H16 2105BO 0:44:35 10'52 5474 3596 -1878 5474
18 FENEUIL Hugo 15584 H16 5101CA 0:46:36 11'21 4756 3440 -1316 4895
19 BOEHRINGER Arthur 31299 H16 6804AL 0:48:25 11'48 4151 3311 -840 4151
20 DELENNE Tommy 18249 H16 1307PZ 0:49:09 11'59 4789 3262 -1527 4929
21 ODERMATT Thierry 30673 H16 6803AL 0:57:05 13'55 3079 2808 -271 3079
22 DANNECKER Victor 21442 H16 3913FC 0:57:50 14'06 3106 2772 -334 3106
23 GREFF Maël 25096 H18 0111RA 1:00:19 14'42 3870 2658 -1212 3870
24 MERAT Francois 18286 H16 3913FC 1:07:47 16'31 2607 2365 -242 2583
25 AUDIN Charles 31931 H16 7407RA 1:14:33 18'10 2500 2150 -350 2417
26 LE LAY Tristan 23832 H16 7720IF 1:31:38 22'20 3043 1750 -1293 3043
ZAHN Hugo 22785 H16 2104BO pm None 2990 0 2780
PISZCZOROWICZ Théo 29889 H16 7720IF pm None 2475 0 2523
GUILLOT Emile 20365 H16 7004FC pm None 2510 0 2510
SALINGUE VINCENT 31238 H45 6203NO pm None 2407 0 2407